sensor_id;sensor_type;location;lat;lon;timestamp;pressure;altitude;pressure_sealevel;temperature;humidity
67052;BME280;53957;47.222;18.670;2023-01-29T00:01:17;100975.28;;;-0.40;100.00
67052;BME280;53957;47.222;18.670;2023-01-29T00:04:20;100964.22;;;-0.36;100.00
67052;BME280;53957;47.222;18.670;2023-01-29T00:07:23;100971.06;;;-0.35;100.00
67052;BME280;53957;47.222;18.670;2023-01-29T00:10:27;100972.78;;;-0.20;100.00
67052;BME280;53957;47.222;18.670;2023-01-29T00:13:30;100969.91;;;-0.32;100.00
67052;BME280;53957;47.222;18.670;2023-01-29T00:16:33;100975.06;;;-0.39;100.00
67052;BME280;53957;47.222;18.670;2023-01-29T00:19:36;100969.22;;;-0.41;100.00
67052;BME280;53957;47.222;18.670;2023-01-29T00:22:39;100965.44;;;-0.31;100.00
67052;BME280;53957;47.222;18.670;2023-01-29T00:25:42;100972.25;;;-0.37;100.00
67052;BME280;53957;47.222;18.670;2023-01-29T00:28:45;100968.22;;;-0.40;100.00
67052;BME280;53957;47.222;18.670;2023-01-29T00:31:48;100978.69;;;-0.40;100.00
67052;BME280;53957;47.222;18.670;2023-01-29T00:34:51;100980.66;;;-0.49;100.00
67052;BME280;53957;47.222;18.670;2023-01-29T00:37:54;100989.34;;;-0.48;100.00
67052;BME280;53957;47.222;18.670;2023-01-29T00:44:28;100983.56;;;-0.37;100.00
67052;BME280;53957;47.222;18.670;2023-01-29T00:47:50;100984.34;;;-0.43;100.00
67052;BME280;53957;47.222;18.670;2023-01-29T00:50:53;100995.19;;;-0.46;100.00
67052;BME280;53957;47.222;18.670;2023-01-29T00:53:56;100990.56;;;-0.44;100.00
67052;BME280;53957;47.222;18.670;2023-01-29T00:57:00;100993.66;;;-0.34;100.00
67052;BME280;53957;47.222;18.670;2023-01-29T01:00:05;100994.91;;;-0.29;100.00
67052;BME280;53957;47.222;18.670;2023-01-29T01:03:09;100998.63;;;-0.45;100.00
67052;BME280;53957;47.222;18.670;2023-01-29T01:06:12;100999.81;;;-0.48;100.00
67052;BME280;53957;47.222;18.670;2023-01-29T01:09:22;100997.81;;;-0.46;100.00
67052;BME280;53957;47.222;18.670;2023-01-29T01:12:44;100985.09;;;-0.49;100.00
67052;BME280;53957;47.222;18.670;2023-01-29T01:15:46;100996.16;;;-0.25;100.00
67052;BME280;53957;47.222;18.670;2023-01-29T01:18:49;100987.56;;;-0.41;100.00
67052;BME280;53957;47.222;18.670;2023-01-29T01:21:52;100990.94;;;-0.47;100.00
67052;BME280;53957;47.222;18.670;2023-01-29T01:24:55;100991.75;;;-0.46;100.00
67052;BME280;53957;47.222;18.670;2023-01-29T01:27:58;100985.31;;;-0.44;100.00
67052;BME280;53957;47.222;18.670;2023-01-29T01:31:12;100986.28;;;-0.52;100.00
67052;BME280;53957;47.222;18.670;2023-01-29T01:34:15;100985.31;;;-0.44;100.00
67052;BME280;53957;47.222;18.670;2023-01-29T01:37:18;100987.16;;;-0.44;100.00
67052;BME280;53957;47.222;18.670;2023-01-29T01:40:24;100984.69;;;-0.46;100.00
67052;BME280;53957;47.222;18.670;2023-01-29T01:43:27;100987.75;;;-0.42;100.00
67052;BME280;53957;47.222;18.670;2023-01-29T01:46:34;100997.97;;;-0.54;100.00
67052;BME280;53957;47.222;18.670;2023-01-29T01:49:37;100999.56;;;-0.53;100.00
67052;BME280;53957;47.222;18.670;2023-01-29T01:52:52;100998.63;;;-0.45;100.00
67052;BME280;53957;47.222;18.670;2023-01-29T01:56:01;101003.19;;;-0.54;100.00
67052;BME280;53957;47.222;18.670;2023-01-29T01:59:13;101013.72;;;-0.47;100.00
67052;BME280;53957;47.222;18.670;2023-01-29T02:02:18;101019.41;;;-0.44;100.00
67052;BME280;53957;47.222;18.670;2023-01-29T02:05:40;101013.50;;;-0.53;100.00
67052;BME280;53957;47.222;18.670;2023-01-29T02:09:15;101018.16;;;-0.48;100.00
67052;BME280;53957;47.222;18.670;2023-01-29T02:12:38;101020.63;;;-0.40;100.00
67052;BME280;53957;47.222;18.670;2023-01-29T02:15:41;101012.94;;;-0.48;100.00
67052;BME280;53957;47.222;18.670;2023-01-29T02:18:50;101016.53;;;-0.49;100.00
67052;BME280;53957;47.222;18.670;2023-01-29T02:35:45;101017.41;;;-0.63;100.00
67052;BME280;53957;47.222;18.670;2023-01-29T02:39:03;101030.91;;;-0.67;100.00
67052;BME280;53957;47.222;18.670;2023-01-29T02:42:27;101021.59;;;-0.69;100.00
67052;BME280;53957;47.222;18.670;2023-01-29T02:45:49;101036.25;;;-0.53;100.00
67052;BME280;53957;47.222;18.670;2023-01-29T02:49:00;101031.28;;;-0.70;100.00
67052;BME280;53957;47.222;18.670;2023-01-29T02:52:20;101034.97;;;-0.64;100.00
67052;BME280;53957;47.222;18.670;2023-01-29T02:55:35;101036.38;;;-0.61;100.00
67052;BME280;53957;47.222;18.670;2023-01-29T02:58:58;101031.28;;;-0.70;100.00
67052;BME280;53957;47.222;18.670;2023-01-29T03:02:10;101034.97;;;-0.64;100.00
67052;BME280;53957;47.222;18.670;2023-01-29T03:05:17;101037.25;;;-0.54;100.00
67052;BME280;53957;47.222;18.670;2023-01-29T03:08:31;101049.09;;;-0.58;100.00
67052;BME280;53957;47.222;18.670;2023-01-29T03:11:50;101051.16;;;-0.54;100.00
67052;BME280;53957;47.222;18.670;2023-01-29T03:14:55;101050.28;;;-0.61;100.00
67052;BME280;53957;47.222;18.670;2023-01-29T03:18:22;101050.28;;;-0.61;100.00
67052;BME280;53957;47.222;18.670;2023-01-29T03:21:37;101056.38;;;-0.60;100.00
67052;BME280;53957;47.222;18.670;2023-01-29T03:25:02;101052.03;;;-0.46;100.00
67052;BME280;53957;47.222;18.670;2023-01-29T03:28:26;101045.06;;;-0.61;100.00
67052;BME280;53957;47.222;18.670;2023-01-29T03:31:51;101048.19;;;-0.51;100.00
67052;BME280;53957;47.222;18.670;2023-01-29T03:35:13;101049.34;;;-0.53;100.00
67052;BME280;53957;47.222;18.670;2023-01-29T03:38:22;101053.75;;;-0.60;100.00
67052;BME280;53957;47.222;18.670;2023-01-29T03:41:34;101054.59;;;-0.53;100.00
67052;BME280;53957;47.222;18.670;2023-01-29T03:51:39;101059.81;;;-0.53;100.00
67052;BME280;53957;47.222;18.670;2023-01-29T03:54:58;101060.09;;;-0.48;100.00
67052;BME280;53957;47.222;18.670;2023-01-29T04:01:20;101061.81;;;-0.34;100.00
67052;BME280;53957;47.222;18.670;2023-01-29T04:04:29;101064.94;;;-0.45;100.00
67052;BME280;53957;47.222;18.670;2023-01-29T04:07:34;101069.16;;;-0.51;100.00
67052;BME280;53957;47.222;18.670;2023-01-29T04:10:40;101065.69;;;-0.51;100.00
67052;BME280;53957;47.222;18.670;2023-01-29T04:13:46;101061.44;;;-0.52;100.00
67052;BME280;53957;47.222;18.670;2023-01-29T04:16:52;101068.97;;;-0.49;100.00
67052;BME280;53957;47.222;18.670;2023-01-29T04:19:59;101069.19;;;-0.44;100.00
67052;BME280;53957;47.222;18.670;2023-01-29T04:23:05;101067.25;;;-0.35;100.00
67052;BME280;53957;47.222;18.670;2023-01-29T04:26:23;101064.59;;;-0.42;100.00
67052;BME280;53957;47.222;18.670;2023-01-29T04:29:41;101061.34;;;-0.44;100.00
67052;BME280;53957;47.222;18.670;2023-01-29T04:33:54;101068.13;;;-0.50;100.00
67052;BME280;53957;47.222;18.670;2023-01-29T04:36:44;101066.94;;;-0.47;100.00
67052;BME280;53957;47.222;18.670;2023-01-29T04:43:02;101058.72;;;-0.44;100.00
67052;BME280;53957;47.222;18.670;2023-01-29T04:49:37;101061.00;;;-0.56;100.00
67052;BME280;53957;47.222;18.670;2023-01-29T04:56:05;101075.00;;;-0.49;100.00
67052;BME280;53957;47.222;18.670;2023-01-29T04:59:14;101072.19;;;-0.47;100.00
67052;BME280;53957;47.222;18.670;2023-01-29T05:02:21;101079.44;;;-0.49;100.00
67052;BME280;53957;47.222;18.670;2023-01-29T05:05:26;101078.16;;;-0.53;100.00
67052;BME280;53957;47.222;18.670;2023-01-29T05:08:31;101077.41;;;-0.47;100.00
67052;BME280;53957;47.222;18.670;2023-01-29T05:11:35;101068.81;;;-0.41;100.00
67052;BME280;53957;47.222;18.670;2023-01-29T05:14:41;101071.63;;;-0.42;100.00
67052;BME280;53957;47.222;18.670;2023-01-29T05:17:44;101080.25;;;-0.49;100.00
67052;BME280;53957;47.222;18.670;2023-01-29T05:20:48;101074.37;;;-0.51;100.00
67052;BME280;53957;47.222;18.670;2023-01-29T05:24:19;101077.31;;;-0.39;100.00
67052;BME280;53957;47.222;18.670;2023-01-29T05:27:33;101086.03;;;-0.31;100.00
67052;BME280;53957;47.222;18.670;2023-01-29T05:30:56;101079.91;;;-0.39;100.00
67052;BME280;53957;47.222;18.670;2023-01-29T05:33:59;101073.75;;;-0.53;100.00
67052;BME280;53957;47.222;18.670;2023-01-29T05:37:02;101078.69;;;-0.43;100.00
67052;BME280;53957;47.222;18.670;2023-01-29T05:40:05;101084.50;;;-0.47;100.00
67052;BME280;53957;47.222;18.670;2023-01-29T05:43:28;101078.25;;;-0.46;100.00
67052;BME280;53957;47.222;18.670;2023-01-29T05:46:31;101073.19;;;-0.48;100.00
67052;BME280;53957;47.222;18.670;2023-01-29T05:49:34;101085.78;;;-0.37;100.00
67052;BME280;53957;47.222;18.670;2023-01-29T05:52:40;101086.03;;;-0.31;100.00
67052;BME280;53957;47.222;18.670;2023-01-29T05:55:46;101086.91;;;-0.46;100.00
67052;BME280;53957;47.222;18.670;2023-01-29T05:58:50;101086.41;;;-0.56;100.00
67052;BME280;53957;47.222;18.670;2023-01-29T06:01:52;101080.78;;;-0.53;100.00
67052;BME280;53957;47.222;18.670;2023-01-29T06:04:56;101086.53;;;-0.65;100.00
67052;BME280;53957;47.222;18.670;2023-01-29T06:07:58;101076.56;;;-0.54;100.00
67052;BME280;53957;47.222;18.670;2023-01-29T06:11:02;101075.62;;;-0.68;100.00
67052;BME280;53957;47.222;18.670;2023-01-29T06:14:05;101082.47;;;-0.67;100.00
67052;BME280;53957;47.222;18.670;2023-01-29T06:17:08;101081.53;;;-0.59;100.00
67052;BME280;53957;47.222;18.670;2023-01-29T06:20:12;101088.34;;;-0.65;100.00
67052;BME280;53957;47.222;18.670;2023-01-29T06:23:15;101102.78;;;-0.54;100.00
67052;BME280;53957;47.222;18.670;2023-01-29T06:26:18;101106.00;;;-0.52;100.00
67052;BME280;53957;47.222;18.670;2023-01-29T06:29:21;101109.56;;;-0.60;100.00
67052;BME280;53957;47.222;18.670;2023-01-29T06:32:24;101112.50;;;-0.48;100.00
67052;BME280;53957;47.222;18.670;2023-01-29T06:35:27;101125.22;;;-0.45;100.00
67052;BME280;53957;47.222;18.670;2023-01-29T06:38:30;101126.72;;;-0.57;100.00
67052;BME280;53957;47.222;18.670;2023-01-29T06:41:33;101135.81;;;-0.53;100.00
67052;BME280;53957;47.222;18.670;2023-01-29T06:44:36;101129.72;;;-0.60;100.00
67052;BME280;53957;47.222;18.670;2023-01-29T06:47:39;101134.25;;;-0.69;100.00
67052;BME280;53957;47.222;18.670;2023-01-29T06:50:42;101144.72;;;-0.54;100.00
67052;BME280;53957;47.222;18.670;2023-01-29T06:53:45;101144.38;;;-0.66;100.00
67052;BME280;53957;47.222;18.670;2023-01-29T06:56:48;101134.87;;;-0.67;100.00
67052;BME280;53957;47.222;18.670;2023-01-29T06:59:51;101145.31;;;-0.74;100.00
67052;BME280;53957;47.222;18.670;2023-01-29T07:02:54;101147.94;;;-0.52;100.00
67052;BME280;53957;47.222;18.670;2023-01-29T07:05:57;101149.31;;;-0.56;100.00
67052;BME280;53957;47.222;18.670;2023-01-29T07:09:01;101148.50;;;-0.57;100.00
67052;BME280;53957;47.222;18.670;2023-01-29T07:12:04;101142.09;;;-0.54;100.00
67052;BME280;53957;47.222;18.670;2023-01-29T07:15:07;101141.19;;;-0.61;100.00
67052;BME280;53957;47.222;18.670;2023-01-29T07:18:11;101152.56;;;-0.54;100.00
67052;BME280;53957;47.222;18.670;2023-01-29T07:21:14;101147.44;;;-0.41;100.00
67052;BME280;53957;47.222;18.670;2023-01-29T07:24:17;101146.19;;;-0.45;100.00
67052;BME280;53957;47.222;18.670;2023-01-29T07:27:20;101138.47;;;-0.31;100.00
67052;BME280;53957;47.222;18.670;2023-01-29T07:30:23;101143.56;;;-0.45;100.00
67052;BME280;53957;47.222;18.670;2023-01-29T07:33:26;101152.25;;;-0.23;100.00
67052;BME280;53957;47.222;18.670;2023-01-29T07:36:29;101142.91;;;-0.32;100.00
67052;BME280;53957;47.222;18.670;2023-01-29T07:39:32;101136.22;;;-0.35;100.00
67052;BME280;53957;47.222;18.670;2023-01-29T07:42:37;101127.22;;;-0.25;100.00
67052;BME280;53957;47.222;18.670;2023-01-29T07:45:41;101137.41;;;-0.15;100.00
67052;BME280;53957;47.222;18.670;2023-01-29T07:48:44;101134.66;;;-0.07;100.00
67052;BME280;53957;47.222;18.670;2023-01-29T07:51:46;101128.69;;;0.06;100.00
67052;BME280;53957;47.222;18.670;2023-01-29T07:54:50;101127.75;;;0.13;100.00
67052;BME280;53957;47.222;18.670;2023-01-29T07:58:00;101117.66;;;-0.11;100.00
67052;BME280;53957;47.222;18.670;2023-01-29T08:01:05;101129.22;;;-0.06;100.00
67052;BME280;53957;47.222;18.670;2023-01-29T08:04:09;101127.94;;;0.12;100.00
67052;BME280;53957;47.222;18.670;2023-01-29T08:07:12;101133.28;;;0.25;100.00
67052;BME280;53957;47.222;18.670;2023-01-29T08:10:15;101138.00;;;0.37;100.00
67052;BME280;53957;47.222;18.670;2023-01-29T08:13:20;101135.47;;;0.22;100.00
67052;BME280;53957;47.222;18.670;2023-01-29T08:16:23;101124.66;;;0.31;100.00
67052;BME280;53957;47.222;18.670;2023-01-29T08:19:26;101127.44;;;0.58;100.00
67052;BME280;53957;47.222;18.670;2023-01-29T08:22:29;101128.41;;;0.22;100.00
67052;BME280;53957;47.222;18.670;2023-01-29T08:25:32;101139.41;;;0.32;100.00
67052;BME280;53957;47.222;18.670;2023-01-29T08:28:36;101144.22;;;0.29;100.00
67052;BME280;53957;47.222;18.670;2023-01-29T08:31:40;101149.78;;;0.19;100.00
67052;BME280;53957;47.222;18.670;2023-01-29T08:34:43;101143.97;;;-0.05;100.00
67052;BME280;53957;47.222;18.670;2023-01-29T08:37:53;101149.16;;;0.17;100.00
67052;BME280;53957;47.222;18.670;2023-01-29T08:40:57;101151.87;;;0.30;100.00
67052;BME280;53957;47.222;18.670;2023-01-29T08:43:59;101154.28;;;0.25;100.00
67052;BME280;53957;47.222;18.670;2023-01-29T08:47:06;101157.75;;;0.04;100.00
67052;BME280;53957;47.222;18.670;2023-01-29T08:50:09;101163.44;;;0.08;100.00
67052;BME280;53957;47.222;18.670;2023-01-29T08:53:13;101158.94;;;0.02;100.00
67052;BME280;53957;47.222;18.670;2023-01-29T08:56:16;101171.91;;;0.10;100.00
67052;BME280;53957;47.222;18.670;2023-01-29T08:59:19;101168.16;;;-0.03;100.00
67052;BME280;53957;47.222;18.670;2023-01-29T09:02:24;101172.97;;;-0.06;100.00
67052;BME280;53957;47.222;18.670;2023-01-29T09:05:30;101174.06;;;-0.22;100.00
67052;BME280;53957;47.222;18.670;2023-01-29T09:08:33;101179.06;;;-0.06;100.00
67052;BME280;53957;47.222;18.670;2023-01-29T09:11:36;101183.38;;;-0.20;100.00
67052;BME280;53957;47.222;18.670;2023-01-29T09:14:39;101178.91;;;-0.19;100.00
67052;BME280;53957;47.222;18.670;2023-01-29T09:17:42;101187.41;;;-0.39;100.00
67052;BME280;53957;47.222;18.670;2023-01-29T09:20:45;101183.22;;;-0.33;100.00
67052;BME280;53957;47.222;18.670;2023-01-29T09:23:49;101176.91;;;-0.39;100.00
67052;BME280;53957;47.222;18.670;2023-01-29T09:26:52;101191.59;;;-0.23;100.00
67052;BME280;53957;47.222;18.670;2023-01-29T09:29:55;101192.28;;;-0.14;100.00
67052;BME280;53957;47.222;18.670;2023-01-29T09:32:59;101200.88;;;-0.20;100.00
67052;BME280;53957;47.222;18.670;2023-01-29T09:36:03;101189.81;;;-0.37;100.00
67052;BME280;53957;47.222;18.670;2023-01-29T09:39:07;101193.06;;;-0.35;100.00
67052;BME280;53957;47.222;18.670;2023-01-29T09:45:23;101199.09;;;-0.20;100.00
67052;BME280;53957;47.222;18.670;2023-01-29T09:48:30;101196.88;;;-0.38;100.00
67052;BME280;53957;47.222;18.670;2023-01-29T09:51:42;101199.31;;;-0.36;100.00
67052;BME280;53957;47.222;18.670;2023-01-29T09:55:13;101202.13;;;-0.38;100.00
67052;BME280;53957;47.222;18.670;2023-01-29T09:58:27;101195.91;;;-0.37;100.00
67052;BME280;53957;47.222;18.670;2023-01-29T10:01:40;101188.63;;;-0.35;100.00
67052;BME280;53957;47.222;18.670;2023-01-29T10:14:42;101205.88;;;-0.25;100.00
67052;BME280;53957;47.222;18.670;2023-01-29T10:17:59;101203.00;;;-0.09;100.00
67052;BME280;53957;47.222;18.670;2023-01-29T10:25:04;101202.47;;;-0.04;100.00
67052;BME280;53957;47.222;18.670;2023-01-29T10:28:19;101202.41;;;-0.11;100.00
67052;BME280;53957;47.222;18.670;2023-01-29T10:31:32;101196.78;;;0.14;100.00
67052;BME280;53957;47.222;18.670;2023-01-29T10:34:45;101204.66;;;0.14;100.00
67052;BME280;53957;47.222;18.670;2023-01-29T10:37:53;101200.09;;;0.51;100.00
67052;BME280;53957;47.222;18.670;2023-01-29T10:47:53;101209.66;;;1.42;98.30
67052;BME280;53957;47.222;18.670;2023-01-29T10:54:48;101212.78;;;0.76;100.00
67052;BME280;53957;47.222;18.670;2023-01-29T10:58:29;101194.00;;;0.51;100.00
67052;BME280;53957;47.222;18.670;2023-01-29T11:01:35;101186.13;;;0.22;100.00
67052;BME280;53957;47.222;18.670;2023-01-29T11:04:38;101186.91;;;0.44;100.00
67052;BME280;53957;47.222;18.670;2023-01-29T11:07:41;101187.16;;;-0.01;100.00
67052;BME280;53957;47.222;18.670;2023-01-29T11:10:53;101183.25;;;0.39;100.00
67052;BME280;53957;47.222;18.670;2023-01-29T11:14:04;101175.91;;;0.56;100.00
67052;BME280;53957;47.222;18.670;2023-01-29T11:17:18;101176.03;;;0.83;100.00
67052;BME280;53957;47.222;18.670;2023-01-29T11:20:27;101171.91;;;0.67;99.40
67052;BME280;53957;47.222;18.670;2023-01-29T11:23:40;101169.56;;;0.43;99.77
67052;BME280;53957;47.222;18.670;2023-01-29T11:26:45;101171.59;;;0.48;100.00
67052;BME280;53957;47.222;18.670;2023-01-29T11:29:50;101163.38;;;0.29;100.00
67052;BME280;53957;47.222;18.670;2023-01-29T11:33:17;101170.16;;;0.45;100.00
67052;BME280;53957;47.222;18.670;2023-01-29T11:36:30;101159.22;;;0.42;100.00
67052;BME280;53957;47.222;18.670;2023-01-29T11:39:42;101141.34;;;0.52;96.84
67052;BME280;53957;47.222;18.670;2023-01-29T11:42:47;101154.59;;;0.79;95.89
67052;BME280;53957;47.222;18.670;2023-01-29T11:45:52;101140.75;;;0.99;93.06
67052;BME280;53957;47.222;18.670;2023-01-29T11:48:57;101134.00;;;0.76;93.47
67052;BME280;53957;47.222;18.670;2023-01-29T11:52:34;101134.47;;;0.93;91.83
67052;BME280;53957;47.222;18.670;2023-01-29T11:55:38;101131.53;;;0.68;94.53
67052;BME280;53957;47.222;18.670;2023-01-29T11:58:53;101126.59;;;0.51;94.74
67052;BME280;53957;47.222;18.670;2023-01-29T12:02:25;101122.56;;;0.55;96.23
67052;BME280;53957;47.222;18.670;2023-01-29T12:05:28;101107.38;;;0.86;96.50
67052;BME280;53957;47.222;18.670;2023-01-29T12:08:37;101106.16;;;0.82;92.83
67052;BME280;53957;47.222;18.670;2023-01-29T12:11:42;101102.97;;;1.00;92.70
67052;BME280;53957;47.222;18.670;2023-01-29T12:14:45;101102.03;;;1.21;94.72
67052;BME280;53957;47.222;18.670;2023-01-29T12:18:43;101094.59;;;0.76;90.00
67052;BME280;53957;47.222;18.670;2023-01-29T12:21:54;101093.50;;;1.12;95.23
67052;BME280;53957;47.222;18.670;2023-01-29T12:25:06;101091.53;;;1.27;91.23
67052;BME280;53957;47.222;18.670;2023-01-29T12:28:17;101088.28;;;1.25;92.15
67052;BME280;53957;47.222;18.670;2023-01-29T12:34:51;101075.97;;;1.33;92.07
67052;BME280;53957;47.222;18.670;2023-01-29T12:44:58;101072.94;;;1.29;92.44
67052;BME280;53957;47.222;18.670;2023-01-29T12:48:08;101072.72;;;1.31;91.61
67052;BME280;53957;47.222;18.670;2023-01-29T12:51:21;101064.28;;;1.75;90.39
67052;BME280;53957;47.222;18.670;2023-01-29T12:54:59;101064.66;;;2.13;88.58
67052;BME280;53957;47.222;18.670;2023-01-29T12:58:04;101069.53;;;1.89;87.54
67052;BME280;53957;47.222;18.670;2023-01-29T13:01:16;101059.78;;;2.09;84.98
67052;BME280;53957;47.222;18.670;2023-01-29T13:04:38;101062.38;;;2.30;88.95
67052;BME280;53957;47.222;18.670;2023-01-29T13:07:46;101059.41;;;1.99;88.13
67052;BME280;53957;47.222;18.670;2023-01-29T13:10:53;101050.69;;;2.19;88.00
67052;BME280;53957;47.222;18.670;2023-01-29T13:13:58;101045.47;;;1.85;85.48
67052;BME280;53957;47.222;18.670;2023-01-29T13:20:31;101035.12;;;2.04;84.99
67052;BME280;53957;47.222;18.670;2023-01-29T13:23:44;101026.97;;;2.25;86.54
67052;BME280;53957;47.222;18.670;2023-01-29T13:26:49;101031.84;;;2.29;84.04
67052;BME280;53957;47.222;18.670;2023-01-29T13:29:53;101022.56;;;2.06;82.73
67052;BME280;53957;47.222;18.670;2023-01-29T13:32:59;101018.12;;;1.93;86.13
67052;BME280;53957;47.222;18.670;2023-01-29T13:36:15;101026.66;;;1.48;87.60
67052;BME280;53957;47.222;18.670;2023-01-29T13:39:38;101021.78;;;1.18;87.02
67052;BME280;53957;47.222;18.670;2023-01-29T13:42:49;101013.03;;;0.98;91.24
67052;BME280;53957;47.222;18.670;2023-01-29T13:45:57;101015.63;;;0.77;91.32
67052;BME280;53957;47.222;18.670;2023-01-29T13:49:00;101011.56;;;0.68;92.37
67052;BME280;53957;47.222;18.670;2023-01-29T13:52:23;101009.53;;;0.63;91.78
67052;BME280;53957;47.222;18.670;2023-01-29T13:55:31;101021.06;;;0.76;89.55
67052;BME280;53957;47.222;18.670;2023-01-29T13:58:55;101017.53;;;0.48;89.00
67052;BME280;53957;47.222;18.670;2023-01-29T14:02:02;101015.81;;;0.69;90.40
67052;BME280;53957;47.222;18.670;2023-01-29T14:11:47;101013.72;;;0.51;91.05
67052;BME280;53957;47.222;18.670;2023-01-29T14:18:18;101010.22;;;0.37;90.77
67052;BME280;53957;47.222;18.670;2023-01-29T14:21:34;101004.13;;;0.30;92.25
67052;BME280;53957;47.222;18.670;2023-01-29T14:24:41;100996.06;;;0.31;92.38
67052;BME280;53957;47.222;18.670;2023-01-29T14:27:47;101013.81;;;-0.06;92.23
67052;BME280;53957;47.222;18.670;2023-01-29T14:30:52;101013.91;;;0.08;95.12
67052;BME280;53957;47.222;18.670;2023-01-29T14:37:45;101022.00;;;0.13;93.35
67052;BME280;53957;47.222;18.670;2023-01-29T14:40:49;101025.62;;;-0.23;96.19
67052;BME280;53957;47.222;18.670;2023-01-29T14:50:47;101017.66;;;-0.37;95.64
67052;BME280;53957;47.222;18.670;2023-01-29T14:53:58;101015.47;;;-0.55;97.81
67052;BME280;53957;47.222;18.670;2023-01-29T14:57:04;101014.25;;;-0.59;97.29
67052;BME280;53957;47.222;18.670;2023-01-29T15:00:22;101019.28;;;-0.57;95.57
67052;BME280;53957;47.222;18.670;2023-01-29T15:03:49;101021.66;;;-0.62;97.38
67052;BME280;53957;47.222;18.670;2023-01-29T15:07:13;101020.91;;;-0.56;99.12
67052;BME280;53957;47.222;18.670;2023-01-29T15:10:26;101025.53;;;-0.58;98.75
67052;BME280;53957;47.222;18.670;2023-01-29T15:13:40;101020.22;;;-0.65;98.68
67052;BME280;53957;47.222;18.670;2023-01-29T15:19:53;101017.69;;;-0.80;99.91
67052;BME280;53957;47.222;18.670;2023-01-29T15:23:00;101017.31;;;-0.99;100.00
67052;BME280;53957;47.222;18.670;2023-01-29T15:26:07;101015.16;;;-1.10;100.00
67052;BME280;53957;47.222;18.670;2023-01-29T15:29:22;101014.16;;;-1.09;100.00
67052;BME280;53957;47.222;18.670;2023-01-29T15:32:36;101013.59;;;-1.26;100.00
67052;BME280;53957;47.222;18.670;2023-01-29T15:35:41;101013.44;;;-1.39;100.00
67052;BME280;53957;47.222;18.670;2023-01-29T15:38:46;101014.34;;;-1.32;100.00
67052;BME280;53957;47.222;18.670;2023-01-29T15:42:13;101008.31;;;-1.63;100.00
67052;BME280;53957;47.222;18.670;2023-01-29T15:45:29;101016.91;;;-1.69;100.00
67052;BME280;53957;47.222;18.670;2023-01-29T15:48:41;101010.37;;;-1.88;100.00
67052;BME280;53957;47.222;18.670;2023-01-29T15:51:45;101020.31;;;-1.83;100.00
67052;BME280;53957;47.222;18.670;2023-01-29T15:54:50;101017.88;;;-2.00;100.00
67052;BME280;53957;47.222;18.670;2023-01-29T15:58:18;101018.03;;;-2.01;100.00
67052;BME280;53957;47.222;18.670;2023-01-29T16:01:25;101023.44;;;-2.18;100.00
67052;BME280;53957;47.222;18.670;2023-01-29T16:04:30;101018.75;;;-2.22;100.00
67052;BME280;53957;47.222;18.670;2023-01-29T16:07:37;101016.69;;;-2.27;100.00
67052;BME280;53957;47.222;18.670;2023-01-29T16:10:41;101023.56;;;-1.96;100.00
67052;BME280;53957;47.222;18.670;2023-01-29T16:13:47;101019.47;;;-2.14;100.00
67052;BME280;53957;47.222;18.670;2023-01-29T16:16:52;101024.53;;;-2.12;100.00
67052;BME280;53957;47.222;18.670;2023-01-29T16:19:57;101022.72;;;-2.27;100.00
67052;BME280;53957;47.222;18.670;2023-01-29T16:23:01;101020.56;;;-2.23;100.00
67052;BME280;53957;47.222;18.670;2023-01-29T16:26:06;101028.66;;;-2.18;100.00
67052;BME280;53957;47.222;18.670;2023-01-29T16:29:19;101030.31;;;-2.17;100.00
67052;BME280;53957;47.222;18.670;2023-01-29T16:32:23;101036.66;;;-1.96;100.00
67052;BME280;53957;47.222;18.670;2023-01-29T16:35:27;101042.59;;;-2.02;100.00
67052;BME280;53957;47.222;18.670;2023-01-29T16:38:35;101042.03;;;-1.98;100.00
67052;BME280;53957;47.222;18.670;2023-01-29T16:41:41;101040.87;;;-1.80;100.00
67052;BME280;53957;47.222;18.670;2023-01-29T16:45:04;101052.78;;;-1.63;100.00
67052;BME280;53957;47.222;18.670;2023-01-29T16:48:29;101056.03;;;-1.60;100.00
67052;BME280;53957;47.222;18.670;2023-01-29T16:51:38;101055.84;;;-1.44;100.00
67052;BME280;53957;47.222;18.670;2023-01-29T16:58:18;101066.22;;;-1.36;100.00
67052;BME280;53957;47.222;18.670;2023-01-29T17:01:27;101069.62;;;-1.20;100.00
67052;BME280;53957;47.222;18.670;2023-01-29T17:04:32;101067.72;;;-1.26;100.00
67052;BME280;53957;47.222;18.670;2023-01-29T17:07:35;101067.37;;;-1.23;100.00
67052;BME280;53957;47.222;18.670;2023-01-29T17:10:45;101069.88;;;-1.15;100.00
67052;BME280;53957;47.222;18.670;2023-01-29T17:13:50;101069.44;;;-1.19;100.00
67052;BME280;53957;47.222;18.670;2023-01-29T17:17:17;101063.94;;;-1.24;100.00
67052;BME280;53957;47.222;18.670;2023-01-29T17:20:21;101067.50;;;-1.10;100.00
67052;BME280;53957;47.222;18.670;2023-01-29T17:23:24;101062.16;;;-1.23;100.00
67052;BME280;53957;47.222;18.670;2023-01-29T17:26:29;101054.37;;;-1.32;100.00
67052;BME280;53957;47.222;18.670;2023-01-29T17:29:33;101053.00;;;-1.27;100.00
67052;BME280;53957;47.222;18.670;2023-01-29T17:32:46;101048.62;;;-1.42;100.00
67052;BME280;53957;47.222;18.670;2023-01-29T17:35:51;101042.28;;;-1.33;100.00
67052;BME280;53957;47.222;18.670;2023-01-29T17:38:55;101029.50;;;-1.42;100.00
67052;BME280;53957;47.222;18.670;2023-01-29T17:41:58;101038.25;;;-1.50;100.00
67052;BME280;53957;47.222;18.670;2023-01-29T17:45:01;101041.03;;;-1.37;100.00
67052;BME280;53957;47.222;18.670;2023-01-29T17:48:27;101037.34;;;-1.42;100.00
67052;BME280;53957;47.222;18.670;2023-01-29T17:51:31;101030.56;;;-1.37;100.00
67052;BME280;53957;47.222;18.670;2023-01-29T17:54:54;101029.47;;;-1.27;100.00